sensor_id;sensor_type;location;lat;lon;timestamp;P1;durP1;ratioP1;P2;durP2;ratioP2
29878;SDS011;16752;53.364;-1.488;2023-12-07T00:00:43;20.45;;;10.57;;
29878;SDS011;16752;53.364;-1.488;2023-12-07T00:03:27;24.88;;;10.82;;
29878;SDS011;16752;53.364;-1.488;2023-12-07T00:06:11;32.45;;;11.82;;
29878;SDS011;16752;53.364;-1.488;2023-12-07T00:08:55;25.48;;;11.48;;
29878;SDS011;16752;53.364;-1.488;2023-12-07T00:11:40;24.70;;;10.77;;
29878;SDS011;16752;53.364;-1.488;2023-12-07T00:14:24;25.40;;;11.63;;
29878;SDS011;16752;53.364;-1.488;2023-12-07T00:17:08;30.77;;;11.90;;
29878;SDS011;16752;53.364;-1.488;2023-12-07T00:19:51;20.77;;;10.30;;
29878;SDS011;16752;53.364;-1.488;2023-12-07T00:22:37;16.65;;;9.75;;
29878;SDS011;16752;53.364;-1.488;2023-12-07T00:25:21;18.85;;;9.27;;
29878;SDS011;16752;53.364;-1.488;2023-12-07T00:28:05;17.02;;;8.77;;
29878;SDS011;16752;53.364;-1.488;2023-12-07T00:30:49;16.70;;;9.32;;
29878;SDS011;16752;53.364;-1.488;2023-12-07T00:33:34;17.40;;;9.55;;
29878;SDS011;16752;53.364;-1.488;2023-12-07T00:36:18;14.10;;;9.35;;
29878;SDS011;16752;53.364;-1.488;2023-12-07T00:39:02;20.10;;;9.60;;
29878;SDS011;16752;53.364;-1.488;2023-12-07T00:41:47;17.15;;;9.07;;
29878;SDS011;16752;53.364;-1.488;2023-12-07T00:44:32;16.00;;;8.55;;
29878;SDS011;16752;53.364;-1.488;2023-12-07T00:47:16;22.55;;;9.85;;
29878;SDS011;16752;53.364;-1.488;2023-12-07T00:49:59;20.70;;;9.15;;
29878;SDS011;16752;53.364;-1.488;2023-12-07T00:52:43;19.23;;;10.13;;
29878;SDS011;16752;53.364;-1.488;2023-12-07T00:55:28;16.13;;;8.88;;
29878;SDS011;16752;53.364;-1.488;2023-12-07T00:58:12;15.95;;;8.88;;
29878;SDS011;16752;53.364;-1.488;2023-12-07T01:00:57;19.52;;;8.10;;
29878;SDS011;16752;53.364;-1.488;2023-12-07T01:03:41;13.75;;;8.02;;
29878;SDS011;16752;53.364;-1.488;2023-12-07T01:06:25;16.52;;;8.85;;
29878;SDS011;16752;53.364;-1.488;2023-12-07T01:09:09;12.73;;;8.20;;
29878;SDS011;16752;53.364;-1.488;2023-12-07T01:11:57;15.43;;;8.65;;
29878;SDS011;16752;53.364;-1.488;2023-12-07T01:14:42;13.35;;;7.85;;
29878;SDS011;16752;53.364;-1.488;2023-12-07T01:17:26;15.23;;;8.73;;
29878;SDS011;16752;53.364;-1.488;2023-12-07T01:20:10;14.13;;;7.72;;
29878;SDS011;16752;53.364;-1.488;2023-12-07T01:22:56;16.15;;;9.55;;
29878;SDS011;16752;53.364;-1.488;2023-12-07T01:25:40;19.88;;;9.25;;
29878;SDS011;16752;53.364;-1.488;2023-12-07T01:28:23;11.63;;;7.30;;
29878;SDS011;16752;53.364;-1.488;2023-12-07T01:31:08;13.32;;;8.07;;
29878;SDS011;16752;53.364;-1.488;2023-12-07T01:33:52;21.25;;;9.77;;
29878;SDS011;16752;53.364;-1.488;2023-12-07T01:36:35;17.95;;;10.95;;
29878;SDS011;16752;53.364;-1.488;2023-12-07T01:39:19;21.17;;;11.18;;
29878;SDS011;16752;53.364;-1.488;2023-12-07T01:42:04;18.88;;;10.80;;
29878;SDS011;16752;53.364;-1.488;2023-12-07T01:44:48;20.15;;;10.48;;
29878;SDS011;16752;53.364;-1.488;2023-12-07T01:47:32;25.52;;;10.30;;
29878;SDS011;16752;53.364;-1.488;2023-12-07T01:50:18;22.38;;;9.52;;
29878;SDS011;16752;53.364;-1.488;2023-12-07T01:53:07;21.77;;;9.93;;
29878;SDS011;16752;53.364;-1.488;2023-12-07T01:55:51;19.40;;;11.32;;
29878;SDS011;16752;53.364;-1.488;2023-12-07T01:58:37;19.90;;;10.25;;
29878;SDS011;16752;53.364;-1.488;2023-12-07T02:01:22;20.67;;;11.00;;
29878;SDS011;16752;53.364;-1.488;2023-12-07T02:04:06;18.63;;;10.05;;
29878;SDS011;16752;53.364;-1.488;2023-12-07T02:06:52;24.48;;;11.43;;
29878;SDS011;16752;53.364;-1.488;2023-12-07T02:09:37;19.48;;;10.40;;
29878;SDS011;16752;53.364;-1.488;2023-12-07T02:12:21;24.08;;;10.90;;
29878;SDS011;16752;53.364;-1.488;2023-12-07T02:15:05;21.02;;;9.45;;
29878;SDS011;16752;53.364;-1.488;2023-12-07T02:24:08;17.38;;;9.82;;
29878;SDS011;16752;53.364;-1.488;2023-12-07T02:26:55;19.83;;;11.02;;
29878;SDS011;16752;53.364;-1.488;2023-12-07T02:29:39;22.63;;;11.30;;
29878;SDS011;16752;53.364;-1.488;2023-12-07T02:32:23;17.65;;;10.10;;
29878;SDS011;16752;53.364;-1.488;2023-12-07T02:35:07;19.20;;;11.10;;
29878;SDS011;16752;53.364;-1.488;2023-12-07T02:37:53;16.65;;;10.43;;
29878;SDS011;16752;53.364;-1.488;2023-12-07T02:40:38;22.23;;;11.43;;
29878;SDS011;16752;53.364;-1.488;2023-12-07T02:43:24;21.02;;;11.15;;
29878;SDS011;16752;53.364;-1.488;2023-12-07T02:46:08;27.75;;;11.68;;
29878;SDS011;16752;53.364;-1.488;2023-12-07T02:48:51;21.65;;;11.43;;
29878;SDS011;16752;53.364;-1.488;2023-12-07T02:51:35;18.45;;;10.77;;
29878;SDS011;16752;53.364;-1.488;2023-12-07T02:54:19;23.10;;;11.18;;
29878;SDS011;16752;53.364;-1.488;2023-12-07T02:57:03;22.48;;;11.23;;
29878;SDS011;16752;53.364;-1.488;2023-12-07T02:59:48;21.08;;;10.75;;
29878;SDS011;16752;53.364;-1.488;2023-12-07T03:02:33;22.05;;;11.57;;
29878;SDS011;16752;53.364;-1.488;2023-12-07T03:05:18;25.90;;;12.52;;
29878;SDS011;16752;53.364;-1.488;2023-12-07T03:08:04;26.27;;;12.70;;
29878;SDS011;16752;53.364;-1.488;2023-12-07T03:10:48;26.92;;;10.93;;
29878;SDS011;16752;53.364;-1.488;2023-12-07T03:13:32;31.83;;;12.48;;
29878;SDS011;16752;53.364;-1.488;2023-12-07T03:16:16;21.50;;;10.55;;
29878;SDS011;16752;53.364;-1.488;2023-12-07T03:19:00;18.38;;;10.45;;
29878;SDS011;16752;53.364;-1.488;2023-12-07T03:21:45;21.42;;;10.40;;
29878;SDS011;16752;53.364;-1.488;2023-12-07T03:24:29;19.95;;;11.30;;
29878;SDS011;16752;53.364;-1.488;2023-12-07T03:27:13;22.38;;;11.68;;
29878;SDS011;16752;53.364;-1.488;2023-12-07T03:29:57;17.27;;;10.35;;
29878;SDS011;16752;53.364;-1.488;2023-12-07T03:32:41;20.20;;;10.10;;
29878;SDS011;16752;53.364;-1.488;2023-12-07T03:35:25;17.95;;;10.52;;
29878;SDS011;16752;53.364;-1.488;2023-12-07T03:38:09;17.98;;;9.82;;
29878;SDS011;16752;53.364;-1.488;2023-12-07T03:40:53;25.67;;;11.93;;
29878;SDS011;16752;53.364;-1.488;2023-12-07T03:43:37;23.50;;;11.70;;
29878;SDS011;16752;53.364;-1.488;2023-12-07T03:46:21;20.10;;;10.65;;
29878;SDS011;16752;53.364;-1.488;2023-12-07T03:49:05;22.38;;;11.95;;
29878;SDS011;16752;53.364;-1.488;2023-12-07T03:51:49;19.95;;;11.13;;
29878;SDS011;16752;53.364;-1.488;2023-12-07T03:54:33;28.02;;;11.52;;
29878;SDS011;16752;53.364;-1.488;2023-12-07T03:57:17;28.60;;;12.25;;
29878;SDS011;16752;53.364;-1.488;2023-12-07T04:00:01;23.05;;;11.18;;
29878;SDS011;16752;53.364;-1.488;2023-12-07T04:02:47;19.30;;;11.15;;
29878;SDS011;16752;53.364;-1.488;2023-12-07T04:05:31;25.70;;;12.00;;
29878;SDS011;16752;53.364;-1.488;2023-12-07T04:08:15;20.38;;;10.88;;
29878;SDS011;16752;53.364;-1.488;2023-12-07T04:11:00;22.92;;;10.70;;
29878;SDS011;16752;53.364;-1.488;2023-12-07T04:13:44;17.83;;;10.30;;
29878;SDS011;16752;53.364;-1.488;2023-12-07T04:16:29;25.63;;;11.07;;
29878;SDS011;16752;53.364;-1.488;2023-12-07T04:19:13;20.75;;;10.57;;
29878;SDS011;16752;53.364;-1.488;2023-12-07T04:21:57;22.08;;;10.93;;
29878;SDS011;16752;53.364;-1.488;2023-12-07T04:24:41;17.33;;;9.95;;
29878;SDS011;16752;53.364;-1.488;2023-12-07T04:27:25;18.98;;;10.15;;
29878;SDS011;16752;53.364;-1.488;2023-12-07T04:30:09;17.73;;;10.23;;
29878;SDS011;16752;53.364;-1.488;2023-12-07T04:32:54;23.15;;;10.38;;
29878;SDS011;16752;53.364;-1.488;2023-12-07T04:35:37;17.92;;;10.30;;
29878;SDS011;16752;53.364;-1.488;2023-12-07T04:38:21;31.13;;;10.93;;
29878;SDS011;16752;53.364;-1.488;2023-12-07T04:41:05;20.80;;;9.80;;
29878;SDS011;16752;53.364;-1.488;2023-12-07T04:43:49;22.42;;;9.10;;
29878;SDS011;16752;53.364;-1.488;2023-12-07T04:46:33;19.02;;;9.40;;
29878;SDS011;16752;53.364;-1.488;2023-12-07T04:49:18;20.95;;;10.80;;
29878;SDS011;16752;53.364;-1.488;2023-12-07T04:52:02;16.13;;;9.43;;
29878;SDS011;16752;53.364;-1.488;2023-12-07T04:54:47;21.92;;;11.55;;
29878;SDS011;16752;53.364;-1.488;2023-12-07T04:57:35;19.52;;;10.60;;
29878;SDS011;16752;53.364;-1.488;2023-12-07T05:00:20;20.73;;;10.68;;
29878;SDS011;16752;53.364;-1.488;2023-12-07T05:03:05;19.50;;;10.88;;
29878;SDS011;16752;53.364;-1.488;2023-12-07T05:05:48;20.13;;;11.15;;
29878;SDS011;16752;53.364;-1.488;2023-12-07T05:08:33;23.90;;;11.32;;
29878;SDS011;16752;53.364;-1.488;2023-12-07T05:11:17;19.35;;;11.18;;
29878;SDS011;16752;53.364;-1.488;2023-12-07T05:14:01;20.23;;;10.55;;
29878;SDS011;16752;53.364;-1.488;2023-12-07T05:16:47;24.30;;;12.18;;
29878;SDS011;16752;53.364;-1.488;2023-12-07T05:19:32;22.98;;;11.93;;
29878;SDS011;16752;53.364;-1.488;2023-12-07T05:22:15;21.90;;;12.32;;
29878;SDS011;16752;53.364;-1.488;2023-12-07T05:24:59;23.33;;;12.07;;
29878;SDS011;16752;53.364;-1.488;2023-12-07T05:27:43;20.23;;;12.10;;
29878;SDS011;16752;53.364;-1.488;2023-12-07T05:30:28;26.33;;;10.90;;
29878;SDS011;16752;53.364;-1.488;2023-12-07T05:33:13;22.80;;;10.90;;
29878;SDS011;16752;53.364;-1.488;2023-12-07T05:35:57;28.92;;;12.15;;
29878;SDS011;16752;53.364;-1.488;2023-12-07T05:38:42;23.20;;;10.45;;
29878;SDS011;16752;53.364;-1.488;2023-12-07T05:41:26;20.08;;;12.00;;
29878;SDS011;16752;53.364;-1.488;2023-12-07T05:44:10;21.88;;;11.88;;
29878;SDS011;16752;53.364;-1.488;2023-12-07T05:46:54;27.50;;;13.32;;
29878;SDS011;16752;53.364;-1.488;2023-12-07T05:49:38;22.42;;;13.25;;
29878;SDS011;16752;53.364;-1.488;2023-12-07T05:52:22;23.08;;;12.07;;
29878;SDS011;16752;53.364;-1.488;2023-12-07T05:55:06;22.90;;;11.27;;
29878;SDS011;16752;53.364;-1.488;2023-12-07T05:57:50;21.88;;;11.98;;
29878;SDS011;16752;53.364;-1.488;2023-12-07T06:00:35;23.00;;;12.38;;
29878;SDS011;16752;53.364;-1.488;2023-12-07T06:03:19;24.65;;;11.55;;
29878;SDS011;16752;53.364;-1.488;2023-12-07T06:06:03;24.58;;;12.30;;
29878;SDS011;16752;53.364;-1.488;2023-12-07T06:08:47;22.40;;;12.15;;
29878;SDS011;16752;53.364;-1.488;2023-12-07T06:11:32;22.70;;;12.20;;
29878;SDS011;16752;53.364;-1.488;2023-12-07T06:14:17;21.67;;;12.60;;
29878;SDS011;16752;53.364;-1.488;2023-12-07T06:17:01;18.83;;;11.73;;
29878;SDS011;16752;53.364;-1.488;2023-12-07T06:19:45;18.60;;;12.45;;
29878;SDS011;16752;53.364;-1.488;2023-12-07T06:22:29;23.13;;;12.55;;
29878;SDS011;16752;53.364;-1.488;2023-12-07T06:25:13;21.63;;;12.52;;
29878;SDS011;16752;53.364;-1.488;2023-12-07T06:27:57;27.88;;;12.85;;
29878;SDS011;16752;53.364;-1.488;2023-12-07T06:30:41;20.25;;;12.45;;
29878;SDS011;16752;53.364;-1.488;2023-12-07T06:33:25;25.15;;;12.63;;
29878;SDS011;16752;53.364;-1.488;2023-12-07T06:36:09;28.58;;;12.85;;
29878;SDS011;16752;53.364;-1.488;2023-12-07T06:38:53;26.40;;;12.15;;
29878;SDS011;16752;53.364;-1.488;2023-12-07T06:41:38;26.23;;;12.93;;
29878;SDS011;16752;53.364;-1.488;2023-12-07T06:44:22;26.73;;;12.93;;
29878;SDS011;16752;53.364;-1.488;2023-12-07T06:47:06;28.27;;;13.75;;
29878;SDS011;16752;53.364;-1.488;2023-12-07T06:49:50;23.67;;;13.57;;
29878;SDS011;16752;53.364;-1.488;2023-12-07T06:52:34;19.55;;;12.32;;
29878;SDS011;16752;53.364;-1.488;2023-12-07T06:55:18;22.63;;;13.75;;
29878;SDS011;16752;53.364;-1.488;2023-12-07T06:58:03;27.65;;;12.85;;
29878;SDS011;16752;53.364;-1.488;2023-12-07T07:00:47;24.92;;;14.02;;
29878;SDS011;16752;53.364;-1.488;2023-12-07T07:03:32;27.05;;;13.98;;
29878;SDS011;16752;53.364;-1.488;2023-12-07T07:06:16;22.08;;;12.73;;
29878;SDS011;16752;53.364;-1.488;2023-12-07T07:09:00;27.70;;;14.15;;
29878;SDS011;16752;53.364;-1.488;2023-12-07T07:11:47;23.35;;;13.00;;
29878;SDS011;16752;53.364;-1.488;2023-12-07T07:14:31;22.00;;;13.57;;
29878;SDS011;16752;53.364;-1.488;2023-12-07T07:17:15;22.92;;;13.25;;
29878;SDS011;16752;53.364;-1.488;2023-12-07T07:19:59;23.75;;;13.07;;
29878;SDS011;16752;53.364;-1.488;2023-12-07T07:22:44;23.52;;;13.30;;
29878;SDS011;16752;53.364;-1.488;2023-12-07T07:25:28;22.25;;;11.93;;
29878;SDS011;16752;53.364;-1.488;2023-12-07T07:28:12;27.35;;;12.93;;
29878;SDS011;16752;53.364;-1.488;2023-12-07T07:30:56;23.70;;;12.88;;
29878;SDS011;16752;53.364;-1.488;2023-12-07T07:33:40;20.15;;;12.40;;
29878;SDS011;16752;53.364;-1.488;2023-12-07T07:36:24;24.25;;;11.95;;
29878;SDS011;16752;53.364;-1.488;2023-12-07T07:39:08;25.88;;;11.88;;
29878;SDS011;16752;53.364;-1.488;2023-12-07T07:41:52;24.80;;;12.80;;
29878;SDS011;16752;53.364;-1.488;2023-12-07T07:44:36;23.20;;;11.93;;
29878;SDS011;16752;53.364;-1.488;2023-12-07T07:47:20;19.60;;;11.13;;
29878;SDS011;16752;53.364;-1.488;2023-12-07T07:50:04;16.67;;;11.68;;
29878;SDS011;16752;53.364;-1.488;2023-12-07T07:52:49;18.92;;;10.80;;
29878;SDS011;16752;53.364;-1.488;2023-12-07T07:55:33;23.70;;;11.13;;
29878;SDS011;16752;53.364;-1.488;2023-12-07T07:58:17;22.10;;;11.15;;
29878;SDS011;16752;53.364;-1.488;2023-12-07T08:01:01;19.08;;;11.70;;
29878;SDS011;16752;53.364;-1.488;2023-12-07T08:03:45;21.33;;;10.73;;
29878;SDS011;16752;53.364;-1.488;2023-12-07T08:06:29;23.48;;;10.50;;
29878;SDS011;16752;53.364;-1.488;2023-12-07T08:09:13;14.98;;;10.13;;
29878;SDS011;16752;53.364;-1.488;2023-12-07T08:11:57;14.95;;;10.73;;
29878;SDS011;16752;53.364;-1.488;2023-12-07T08:14:41;15.85;;;10.30;;
29878;SDS011;16752;53.364;-1.488;2023-12-07T08:17:27;16.30;;;10.93;;
29878;SDS011;16752;53.364;-1.488;2023-12-07T08:20:12;23.80;;;10.02;;
29878;SDS011;16752;53.364;-1.488;2023-12-07T08:22:58;16.05;;;10.88;;
29878;SDS011;16752;53.364;-1.488;2023-12-07T08:25:43;18.77;;;11.48;;
29878;SDS011;16752;53.364;-1.488;2023-12-07T08:28:27;21.35;;;11.35;;
29878;SDS011;16752;53.364;-1.488;2023-12-07T08:31:11;15.73;;;9.70;;
29878;SDS011;16752;53.364;-1.488;2023-12-07T08:33:55;15.63;;;9.98;;
29878;SDS011;16752;53.364;-1.488;2023-12-07T08:36:38;16.45;;;10.00;;
29878;SDS011;16752;53.364;-1.488;2023-12-07T08:39:22;17.48;;;10.88;;
29878;SDS011;16752;53.364;-1.488;2023-12-07T08:42:07;19.40;;;10.25;;
29878;SDS011;16752;53.364;-1.488;2023-12-07T08:44:51;16.42;;;9.75;;
29878;SDS011;16752;53.364;-1.488;2023-12-07T08:47:36;14.98;;;10.02;;
29878;SDS011;16752;53.364;-1.488;2023-12-07T08:50:19;14.48;;;9.15;;
29878;SDS011;16752;53.364;-1.488;2023-12-07T08:53:03;14.38;;;9.38;;
29878;SDS011;16752;53.364;-1.488;2023-12-07T08:55:48;19.75;;;10.55;;
29878;SDS011;16752;53.364;-1.488;2023-12-07T08:58:32;15.68;;;9.63;;
29878;SDS011;16752;53.364;-1.488;2023-12-07T09:01:16;14.02;;;9.77;;
29878;SDS011;16752;53.364;-1.488;2023-12-07T09:04:00;17.27;;;9.55;;
29878;SDS011;16752;53.364;-1.488;2023-12-07T09:06:44;17.00;;;8.25;;
29878;SDS011;16752;53.364;-1.488;2023-12-07T09:09:28;11.55;;;8.38;;
29878;SDS011;16752;53.364;-1.488;2023-12-07T09:12:13;14.80;;;8.18;;
29878;SDS011;16752;53.364;-1.488;2023-12-07T09:14:58;11.20;;;7.90;;
29878;SDS011;16752;53.364;-1.488;2023-12-07T09:17:42;10.23;;;6.60;;
29878;SDS011;16752;53.364;-1.488;2023-12-07T09:20:25;16.48;;;8.07;;
29878;SDS011;16752;53.364;-1.488;2023-12-07T09:23:09;15.60;;;8.27;;
29878;SDS011;16752;53.364;-1.488;2023-12-07T09:25:53;10.68;;;7.60;;
29878;SDS011;16752;53.364;-1.488;2023-12-07T09:28:37;11.93;;;8.30;;
29878;SDS011;16752;53.364;-1.488;2023-12-07T09:31:23;11.43;;;8.68;;
29878;SDS011;16752;53.364;-1.488;2023-12-07T09:34:07;12.13;;;8.57;;
29878;SDS011;16752;53.364;-1.488;2023-12-07T09:37:04;9.85;;;8.20;;
29878;SDS011;16752;53.364;-1.488;2023-12-07T09:39:54;13.73;;;8.68;;
29878;SDS011;16752;53.364;-1.488;2023-12-07T09:42:38;13.98;;;9.90;;
29878;SDS011;16752;53.364;-1.488;2023-12-07T09:45:23;14.90;;;9.43;;
29878;SDS011;16752;53.364;-1.488;2023-12-07T09:48:07;19.25;;;10.10;;
29878;SDS011;16752;53.364;-1.488;2023-12-07T09:50:52;22.45;;;11.15;;
29878;SDS011;16752;53.364;-1.488;2023-12-07T09:53:39;14.80;;;9.32;;
29878;SDS011;16752;53.364;-1.488;2023-12-07T09:56:27;17.27;;;9.90;;
29878;SDS011;16752;53.364;-1.488;2023-12-07T09:59:11;14.00;;;10.02;;
29878;SDS011;16752;53.364;-1.488;2023-12-07T10:01:55;17.70;;;10.60;;
29878;SDS011;16752;53.364;-1.488;2023-12-07T10:04:39;14.15;;;10.32;;
29878;SDS011;16752;53.364;-1.488;2023-12-07T10:07:31;15.55;;;10.38;;
29878;SDS011;16752;53.364;-1.488;2023-12-07T10:10:18;14.45;;;10.45;;
29878;SDS011;16752;53.364;-1.488;2023-12-07T10:13:02;15.98;;;11.05;;
29878;SDS011;16752;53.364;-1.488;2023-12-07T10:15:47;19.08;;;12.30;;
29878;SDS011;16752;53.364;-1.488;2023-12-07T10:18:32;14.20;;;10.65;;
29878;SDS011;16752;53.364;-1.488;2023-12-07T10:21:16;15.65;;;10.80;;
29878;SDS011;16752;53.364;-1.488;2023-12-07T10:24:16;13.52;;;9.90;;
29878;SDS011;16752;53.364;-1.488;2023-12-07T10:27:01;15.85;;;11.50;;
29878;SDS011;16752;53.364;-1.488;2023-12-07T10:29:45;14.00;;;10.15;;
29878;SDS011;16752;53.364;-1.488;2023-12-07T10:32:29;14.88;;;10.80;;
29878;SDS011;16752;53.364;-1.488;2023-12-07T10:35:13;16.67;;;10.45;;
29878;SDS011;16752;53.364;-1.488;2023-12-07T10:37:57;13.65;;;10.60;;
29878;SDS011;16752;53.364;-1.488;2023-12-07T10:40:41;16.40;;;11.10;;
29878;SDS011;16752;53.364;-1.488;2023-12-07T10:43:25;19.33;;;11.02;;
29878;SDS011;16752;53.364;-1.488;2023-12-07T10:46:10;15.15;;;10.70;;
29878;SDS011;16752;53.364;-1.488;2023-12-07T10:49:03;19.85;;;11.43;;
29878;SDS011;16752;53.364;-1.488;2023-12-07T10:51:57;16.25;;;10.45;;
29878;SDS011;16752;53.364;-1.488;2023-12-07T10:54:47;20.92;;;11.57;;
29878;SDS011;16752;53.364;-1.488;2023-12-07T10:57:37;18.70;;;10.35;;
29878;SDS011;16752;53.364;-1.488;2023-12-07T11:00:23;17.65;;;10.98;;
29878;SDS011;16752;53.364;-1.488;2023-12-07T11:03:08;15.75;;;9.75;;
29878;SDS011;16752;53.364;-1.488;2023-12-07T11:05:52;17.77;;;10.95;;
29878;SDS011;16752;53.364;-1.488;2023-12-07T11:08:38;19.27;;;11.23;;
29878;SDS011;16752;53.364;-1.488;2023-12-07T11:11:31;17.27;;;10.75;;
29878;SDS011;16752;53.364;-1.488;2023-12-07T11:14:23;16.10;;;10.80;;
29878;SDS011;16752;53.364;-1.488;2023-12-07T11:17:07;20.38;;;11.27;;
29878;SDS011;16752;53.364;-1.488;2023-12-07T11:19:52;23.08;;;12.10;;
29878;SDS011;16752;53.364;-1.488;2023-12-07T11:22:36;18.48;;;11.88;;
29878;SDS011;16752;53.364;-1.488;2023-12-07T11:25:20;18.30;;;12.10;;
29878;SDS011;16752;53.364;-1.488;2023-12-07T11:28:04;20.00;;;11.82;;
29878;SDS011;16752;53.364;-1.488;2023-12-07T11:30:50;15.52;;;11.90;;
29878;SDS011;16752;53.364;-1.488;2023-12-07T11:33:37;20.38;;;11.93;;
29878;SDS011;16752;53.364;-1.488;2023-12-07T11:36:23;17.85;;;10.85;;
29878;SDS011;16752;53.364;-1.488;2023-12-07T11:41:55;18.95;;;11.50;;
29878;SDS011;16752;53.364;-1.488;2023-12-07T11:44:47;20.88;;;11.13;;
29878;SDS011;16752;53.364;-1.488;2023-12-07T11:47:36;15.80;;;10.70;;
29878;SDS011;16752;53.364;-1.488;2023-12-07T11:50:20;18.10;;;11.20;;
29878;SDS011;16752;53.364;-1.488;2023-12-07T11:53:05;20.88;;;11.48;;
29878;SDS011;16752;53.364;-1.488;2023-12-07T11:55:50;19.00;;;10.68;;
29878;SDS011;16752;53.364;-1.488;2023-12-07T11:58:35;16.75;;;10.25;;
29878;SDS011;16752;53.364;-1.488;2023-12-07T12:01:20;16.08;;;10.52;;
29878;SDS011;16752;53.364;-1.488;2023-12-07T12:04:05;20.08;;;11.40;;
29878;SDS011;16752;53.364;-1.488;2023-12-07T12:06:49;17.23;;;10.65;;
29878;SDS011;16752;53.364;-1.488;2023-12-07T12:09:34;19.27;;;10.85;;
29878;SDS011;16752;53.364;-1.488;2023-12-07T12:12:17;19.98;;;11.63;;
29878;SDS011;16752;53.364;-1.488;2023-12-07T12:15:01;17.70;;;12.13;;
29878;SDS011;16752;53.364;-1.488;2023-12-07T12:17:47;21.98;;;11.20;;
29878;SDS011;16752;53.364;-1.488;2023-12-07T12:20:31;19.85;;;11.57;;
29878;SDS011;16752;53.364;-1.488;2023-12-07T12:23:16;24.83;;;12.13;;
29878;SDS011;16752;53.364;-1.488;2023-12-07T12:26:00;24.25;;;12.18;;
29878;SDS011;16752;53.364;-1.488;2023-12-07T12:28:45;22.05;;;12.57;;
29878;SDS011;16752;53.364;-1.488;2023-12-07T12:31:29;24.40;;;12.13;;
29878;SDS011;16752;53.364;-1.488;2023-12-07T12:34:13;23.60;;;11.85;;
29878;SDS011;16752;53.364;-1.488;2023-12-07T12:36:57;22.35;;;12.52;;
29878;SDS011;16752;53.364;-1.488;2023-12-07T12:39:41;20.20;;;13.40;;
29878;SDS011;16752;53.364;-1.488;2023-12-07T12:42:25;22.55;;;10.82;;
29878;SDS011;16752;53.364;-1.488;2023-12-07T12:45:09;26.45;;;12.77;;
29878;SDS011;16752;53.364;-1.488;2023-12-07T12:47:56;20.77;;;10.95;;
29878;SDS011;16752;53.364;-1.488;2023-12-07T12:50:41;25.38;;;11.02;;
29878;SDS011;16752;53.364;-1.488;2023-12-07T12:53:25;22.55;;;10.80;;
29878;SDS011;16752;53.364;-1.488;2023-12-07T12:56:11;29.73;;;12.15;;
29878;SDS011;16752;53.364;-1.488;2023-12-07T12:58:55;16.67;;;11.15;;
29878;SDS011;16752;53.364;-1.488;2023-12-07T13:01:42;19.58;;;11.65;;
29878;SDS011;16752;53.364;-1.488;2023-12-07T13:04:26;22.50;;;10.65;;
29878;SDS011;16752;53.364;-1.488;2023-12-07T13:07:13;21.17;;;12.02;;
29878;SDS011;16752;53.364;-1.488;2023-12-07T13:09:58;17.08;;;11.05;;
29878;SDS011;16752;53.364;-1.488;2023-12-07T13:12:42;21.73;;;10.60;;
29878;SDS011;16752;53.364;-1.488;2023-12-07T13:15:26;18.92;;;11.07;;
29878;SDS011;16752;53.364;-1.488;2023-12-07T13:18:10;20.33;;;9.85;;
29878;SDS011;16752;53.364;-1.488;2023-12-07T13:20:54;21.92;;;11.63;;
29878;SDS011;16752;53.364;-1.488;2023-12-07T13:23:38;24.70;;;11.68;;
29878;SDS011;16752;53.364;-1.488;2023-12-07T13:26:22;24.50;;;12.68;;
29878;SDS011;16752;53.364;-1.488;2023-12-07T13:29:07;24.92;;;11.35;;
29878;SDS011;16752;53.364;-1.488;2023-12-07T13:31:51;22.85;;;11.93;;
29878;SDS011;16752;53.364;-1.488;2023-12-07T13:34:35;19.58;;;11.82;;
29878;SDS011;16752;53.364;-1.488;2023-12-07T13:37:19;20.25;;;12.07;;
29878;SDS011;16752;53.364;-1.488;2023-12-07T13:40:04;22.33;;;12.48;;
29878;SDS011;16752;53.364;-1.488;2023-12-07T13:42:53;23.58;;;11.95;;
29878;SDS011;16752;53.364;-1.488;2023-12-07T13:45:37;18.08;;;10.57;;
29878;SDS011;16752;53.364;-1.488;2023-12-07T13:48:21;24.17;;;11.07;;
29878;SDS011;16752;53.364;-1.488;2023-12-07T13:51:05;23.55;;;10.32;;
29878;SDS011;16752;53.364;-1.488;2023-12-07T13:53:50;21.88;;;10.75;;
29878;SDS011;16752;53.364;-1.488;2023-12-07T13:56:39;22.00;;;10.40;;
29878;SDS011;16752;53.364;-1.488;2023-12-07T13:59:23;23.42;;;10.82;;
29878;SDS011;16752;53.364;-1.488;2023-12-07T14:02:07;19.77;;;9.65;;
29878;SDS011;16752;53.364;-1.488;2023-12-07T14:04:52;20.73;;;10.80;;
29878;SDS011;16752;53.364;-1.488;2023-12-07T14:07:36;19.85;;;11.10;;
29878;SDS011;16752;53.364;-1.488;2023-12-07T14:10:20;20.52;;;11.32;;
29878;SDS011;16752;53.364;-1.488;2023-12-07T14:13:04;20.15;;;9.95;;
29878;SDS011;16752;53.364;-1.488;2023-12-07T14:15:48;18.75;;;9.70;;
29878;SDS011;16752;53.364;-1.488;2023-12-07T14:18:32;20.80;;;9.88;;
29878;SDS011;16752;53.364;-1.488;2023-12-07T14:21:18;21.48;;;9.93;;
29878;SDS011;16752;53.364;-1.488;2023-12-07T14:24:04;19.25;;;9.43;;
29878;SDS011;16752;53.364;-1.488;2023-12-07T14:26:48;23.92;;;9.95;;
29878;SDS011;16752;53.364;-1.488;2023-12-07T14:29:33;19.08;;;10.52;;
29878;SDS011;16752;53.364;-1.488;2023-12-07T14:32:17;17.23;;;8.98;;
29878;SDS011;16752;53.364;-1.488;2023-12-07T14:35:01;25.25;;;9.35;;
29878;SDS011;16752;53.364;-1.488;2023-12-07T14:37:46;19.63;;;9.70;;
29878;SDS011;16752;53.364;-1.488;2023-12-07T14:40:30;19.75;;;10.45;;
29878;SDS011;16752;53.364;-1.488;2023-12-07T14:43:14;24.17;;;10.50;;
29878;SDS011;16752;53.364;-1.488;2023-12-07T14:45:58;25.10;;;10.55;;
29878;SDS011;16752;53.364;-1.488;2023-12-07T14:48:42;19.77;;;10.82;;
29878;SDS011;16752;53.364;-1.488;2023-12-07T14:51:26;21.58;;;10.43;;
29878;SDS011;16752;53.364;-1.488;2023-12-07T14:54:10;18.35;;;10.85;;
29878;SDS011;16752;53.364;-1.488;2023-12-07T14:56:54;19.67;;;9.50;;
29878;SDS011;16752;53.364;-1.488;2023-12-07T14:59:40;19.08;;;9.35;;
29878;SDS011;16752;53.364;-1.488;2023-12-07T15:02:24;21.08;;;9.30;;
29878;SDS011;16752;53.364;-1.488;2023-12-07T15:05:08;24.17;;;10.88;;
29878;SDS011;16752;53.364;-1.488;2023-12-07T15:07:52;22.05;;;9.88;;
29878;SDS011;16752;53.364;-1.488;2023-12-07T15:10:36;19.60;;;9.57;;
29878;SDS011;16752;53.364;-1.488;2023-12-07T15:13:21;22.50;;;10.45;;
29878;SDS011;16752;53.364;-1.488;2023-12-07T15:16:05;14.07;;;9.13;;
29878;SDS011;16752;53.364;-1.488;2023-12-07T15:18:50;17.02;;;9.35;;
29878;SDS011;16752;53.364;-1.488;2023-12-07T15:21:34;21.52;;;9.48;;
29878;SDS011;16752;53.364;-1.488;2023-12-07T15:24:18;20.67;;;9.60;;
29878;SDS011;16752;53.364;-1.488;2023-12-07T15:27:04;22.13;;;9.70;;
29878;SDS011;16752;53.364;-1.488;2023-12-07T15:29:47;20.23;;;11.50;;
29878;SDS011;16752;53.364;-1.488;2023-12-07T15:32:31;18.33;;;11.60;;
29878;SDS011;16752;53.364;-1.488;2023-12-07T15:35:16;18.83;;;11.23;;
29878;SDS011;16752;53.364;-1.488;2023-12-07T15:38:00;19.10;;;10.73;;
29878;SDS011;16752;53.364;-1.488;2023-12-07T15:40:44;17.67;;;9.80;;
29878;SDS011;16752;53.364;-1.488;2023-12-07T15:43:28;16.67;;;9.70;;
29878;SDS011;16752;53.364;-1.488;2023-12-07T15:46:14;19.70;;;11.25;;
29878;SDS011;16752;53.364;-1.488;2023-12-07T15:48:57;14.10;;;9.57;;
29878;SDS011;16752;53.364;-1.488;2023-12-07T15:51:42;16.83;;;8.10;;
29878;SDS011;16752;53.364;-1.488;2023-12-07T15:54:26;18.88;;;10.32;;
29878;SDS011;16752;53.364;-1.488;2023-12-07T15:57:10;11.70;;;8.10;;
29878;SDS011;16752;53.364;-1.488;2023-12-07T15:59:54;17.92;;;8.77;;